sensor_id;sensor_type;location;lat;lon;timestamp;P1;durP1;ratioP1;P2;durP2;ratioP2
23718;SDS011;43322;52.230;5.702;2024-02-21T00:02:06;16.50;;;8.75;;
23718;SDS011;43322;52.230;5.702;2024-02-21T00:04:33;17.52;;;8.13;;
23718;SDS011;43322;52.230;5.702;2024-02-21T00:07:00;21.23;;;8.05;;
23718;SDS011;43322;52.230;5.702;2024-02-21T00:09:28;23.02;;;8.60;;
23718;SDS011;43322;52.230;5.702;2024-02-21T00:11:55;14.55;;;8.23;;
23718;SDS011;43322;52.230;5.702;2024-02-21T00:14:23;16.77;;;8.20;;
23718;SDS011;43322;52.230;5.702;2024-02-21T00:16:50;15.63;;;8.27;;
23718;SDS011;43322;52.230;5.702;2024-02-21T00:19:17;11.45;;;8.05;;
23718;SDS011;43322;52.230;5.702;2024-02-21T00:21:44;23.88;;;8.88;;
23718;SDS011;43322;52.230;5.702;2024-02-21T00:24:10;16.35;;;8.00;;
23718;SDS011;43322;52.230;5.702;2024-02-21T00:26:39;17.70;;;8.95;;
23718;SDS011;43322;52.230;5.702;2024-02-21T00:29:05;16.13;;;8.68;;
23718;SDS011;43322;52.230;5.702;2024-02-21T00:31:32;23.88;;;8.10;;
23718;SDS011;43322;52.230;5.702;2024-02-21T00:33:59;15.55;;;7.80;;
23718;SDS011;43322;52.230;5.702;2024-02-21T00:36:26;17.00;;;8.25;;
23718;SDS011;43322;52.230;5.702;2024-02-21T00:38:53;17.95;;;8.45;;
23718;SDS011;43322;52.230;5.702;2024-02-21T00:41:20;17.38;;;8.20;;
23718;SDS011;43322;52.230;5.702;2024-02-21T00:43:48;20.75;;;8.23;;
23718;SDS011;43322;52.230;5.702;2024-02-21T00:46:15;19.02;;;8.73;;
23718;SDS011;43322;52.230;5.702;2024-02-21T00:48:42;14.60;;;7.60;;
23718;SDS011;43322;52.230;5.702;2024-02-21T00:51:08;22.35;;;8.02;;
23718;SDS011;43322;52.230;5.702;2024-02-21T00:53:35;16.75;;;7.70;;
23718;SDS011;43322;52.230;5.702;2024-02-21T00:56:03;15.48;;;7.40;;
23718;SDS011;43322;52.230;5.702;2024-02-21T00:58:30;16.85;;;7.18;;
23718;SDS011;43322;52.230;5.702;2024-02-21T01:00:59;14.35;;;7.72;;
23718;SDS011;43322;52.230;5.702;2024-02-21T01:03:28;17.63;;;7.18;;
23718;SDS011;43322;52.230;5.702;2024-02-21T01:05:55;16.27;;;7.13;;
23718;SDS011;43322;52.230;5.702;2024-02-21T01:08:21;20.50;;;7.07;;
23718;SDS011;43322;52.230;5.702;2024-02-21T01:10:48;17.75;;;7.28;;
23718;SDS011;43322;52.230;5.702;2024-02-21T01:13:15;14.07;;;6.72;;
23718;SDS011;43322;52.230;5.702;2024-02-21T01:15:42;26.52;;;8.30;;
23718;SDS011;43322;52.230;5.702;2024-02-21T01:18:10;18.45;;;7.63;;
23718;SDS011;43322;52.230;5.702;2024-02-21T01:20:37;12.93;;;7.07;;
23718;SDS011;43322;52.230;5.702;2024-02-21T01:23:04;16.38;;;6.95;;
23718;SDS011;43322;52.230;5.702;2024-02-21T01:25:30;17.80;;;7.28;;
23718;SDS011;43322;52.230;5.702;2024-02-21T01:27:57;21.88;;;7.80;;
23718;SDS011;43322;52.230;5.702;2024-02-21T01:30:24;19.75;;;6.75;;
23718;SDS011;43322;52.230;5.702;2024-02-21T01:32:51;18.08;;;6.93;;
23718;SDS011;43322;52.230;5.702;2024-02-21T01:35:19;18.77;;;7.35;;
23718;SDS011;43322;52.230;5.702;2024-02-21T01:37:46;18.83;;;7.07;;
23718;SDS011;43322;52.230;5.702;2024-02-21T01:40:14;13.25;;;6.97;;
23718;SDS011;43322;52.230;5.702;2024-02-21T01:42:41;15.63;;;7.07;;
23718;SDS011;43322;52.230;5.702;2024-02-21T01:45:08;17.20;;;8.00;;
23718;SDS011;43322;52.230;5.702;2024-02-21T01:47:35;19.45;;;7.95;;
23718;SDS011;43322;52.230;5.702;2024-02-21T01:50:03;16.83;;;7.43;;
23718;SDS011;43322;52.230;5.702;2024-02-21T01:52:32;21.27;;;8.85;;
23718;SDS011;43322;52.230;5.702;2024-02-21T01:55:00;19.13;;;8.52;;
23718;SDS011;43322;52.230;5.702;2024-02-21T01:57:28;19.67;;;8.43;;
23718;SDS011;43322;52.230;5.702;2024-02-21T01:59:55;16.95;;;8.70;;
23718;SDS011;43322;52.230;5.702;2024-02-21T02:02:21;24.85;;;9.40;;
23718;SDS011;43322;52.230;5.702;2024-02-21T02:04:48;21.70;;;8.60;;
23718;SDS011;43322;52.230;5.702;2024-02-21T02:07:15;25.13;;;9.65;;
23718;SDS011;43322;52.230;5.702;2024-02-21T02:09:43;17.00;;;9.23;;
23718;SDS011;43322;52.230;5.702;2024-02-21T02:12:10;20.67;;;9.02;;
23718;SDS011;43322;52.230;5.702;2024-02-21T02:14:37;17.58;;;8.70;;
23718;SDS011;43322;52.230;5.702;2024-02-21T02:17:04;17.67;;;9.38;;
23718;SDS011;43322;52.230;5.702;2024-02-21T02:19:31;21.08;;;9.48;;
23718;SDS011;43322;52.230;5.702;2024-02-21T02:22:00;17.85;;;9.90;;
23718;SDS011;43322;52.230;5.702;2024-02-21T02:24:37;17.00;;;9.57;;
23718;SDS011;43322;52.230;5.702;2024-02-21T02:27:04;21.33;;;9.57;;
23718;SDS011;43322;52.230;5.702;2024-02-21T02:29:31;23.45;;;9.52;;
23718;SDS011;43322;52.230;5.702;2024-02-21T02:32:00;20.23;;;9.48;;
23718;SDS011;43322;52.230;5.702;2024-02-21T02:34:27;18.77;;;9.38;;
23718;SDS011;43322;52.230;5.702;2024-02-21T02:36:54;26.33;;;10.55;;
23718;SDS011;43322;52.230;5.702;2024-02-21T02:39:20;20.38;;;12.52;;
23718;SDS011;43322;52.230;5.702;2024-02-21T02:41:48;26.67;;;10.85;;
23718;SDS011;43322;52.230;5.702;2024-02-21T02:44:15;18.85;;;9.27;;
23718;SDS011;43322;52.230;5.702;2024-02-21T02:46:42;18.95;;;10.15;;
23718;SDS011;43322;52.230;5.702;2024-02-21T02:49:09;20.92;;;10.18;;
23718;SDS011;43322;52.230;5.702;2024-02-21T02:51:36;17.85;;;9.50;;
23718;SDS011;43322;52.230;5.702;2024-02-21T02:54:03;20.83;;;10.43;;
23718;SDS011;43322;52.230;5.702;2024-02-21T02:56:29;19.20;;;9.48;;
23718;SDS011;43322;52.230;5.702;2024-02-21T02:58:58;18.45;;;9.10;;
23718;SDS011;43322;52.230;5.702;2024-02-21T03:01:24;25.83;;;10.57;;
23718;SDS011;43322;52.230;5.702;2024-02-21T03:03:52;19.08;;;10.05;;
23718;SDS011;43322;52.230;5.702;2024-02-21T03:06:19;24.15;;;9.77;;
23718;SDS011;43322;52.230;5.702;2024-02-21T03:08:46;19.70;;;10.43;;
23718;SDS011;43322;52.230;5.702;2024-02-21T03:11:13;26.98;;;10.73;;
23718;SDS011;43322;52.230;5.702;2024-02-21T03:13:40;20.88;;;10.63;;
23718;SDS011;43322;52.230;5.702;2024-02-21T03:16:08;25.88;;;11.00;;
23718;SDS011;43322;52.230;5.702;2024-02-21T03:18:35;25.52;;;10.50;;
23718;SDS011;43322;52.230;5.702;2024-02-21T03:21:02;20.65;;;10.23;;
23718;SDS011;43322;52.230;5.702;2024-02-21T03:23:30;23.60;;;10.60;;
23718;SDS011;43322;52.230;5.702;2024-02-21T03:25:57;16.63;;;9.95;;
23718;SDS011;43322;52.230;5.702;2024-02-21T03:28:23;16.98;;;10.18;;
23718;SDS011;43322;52.230;5.702;2024-02-21T03:30:50;21.88;;;10.77;;
23718;SDS011;43322;52.230;5.702;2024-02-21T03:33:18;24.05;;;10.52;;
23718;SDS011;43322;52.230;5.702;2024-02-21T03:35:47;26.33;;;10.98;;
23718;SDS011;43322;52.230;5.702;2024-02-21T03:38:14;24.35;;;10.77;;
23718;SDS011;43322;52.230;5.702;2024-02-21T03:40:41;27.40;;;11.25;;
23718;SDS011;43322;52.230;5.702;2024-02-21T03:43:08;20.98;;;10.20;;
23718;SDS011;43322;52.230;5.702;2024-02-21T03:45:35;26.38;;;9.80;;
23718;SDS011;43322;52.230;5.702;2024-02-21T03:48:02;19.42;;;9.90;;
23718;SDS011;43322;52.230;5.702;2024-02-21T03:50:30;20.08;;;9.88;;
23718;SDS011;43322;52.230;5.702;2024-02-21T03:52:57;23.35;;;9.45;;
23718;SDS011;43322;52.230;5.702;2024-02-21T03:55:24;22.33;;;10.50;;
23718;SDS011;43322;52.230;5.702;2024-02-21T03:57:51;22.23;;;10.00;;
23718;SDS011;43322;52.230;5.702;2024-02-21T04:00:18;14.85;;;9.45;;
23718;SDS011;43322;52.230;5.702;2024-02-21T04:02:45;22.73;;;9.90;;
23718;SDS011;43322;52.230;5.702;2024-02-21T04:05:14;35.67;;;11.30;;
23718;SDS011;43322;52.230;5.702;2024-02-21T04:07:43;22.55;;;11.65;;
23718;SDS011;43322;52.230;5.702;2024-02-21T04:10:10;21.75;;;10.75;;
23718;SDS011;43322;52.230;5.702;2024-02-21T04:12:37;24.27;;;10.57;;
23718;SDS011;43322;52.230;5.702;2024-02-21T04:15:04;27.45;;;11.98;;
23718;SDS011;43322;52.230;5.702;2024-02-21T04:17:31;20.42;;;11.10;;
23718;SDS011;43322;52.230;5.702;2024-02-21T04:20:01;24.35;;;11.38;;
23718;SDS011;43322;52.230;5.702;2024-02-21T04:22:30;23.60;;;12.35;;
23718;SDS011;43322;52.230;5.702;2024-02-21T04:24:58;25.50;;;11.85;;
23718;SDS011;43322;52.230;5.702;2024-02-21T04:27:26;27.02;;;11.90;;
23718;SDS011;43322;52.230;5.702;2024-02-21T04:29:54;21.98;;;11.65;;
23718;SDS011;43322;52.230;5.702;2024-02-21T04:32:21;25.17;;;11.40;;
23718;SDS011;43322;52.230;5.702;2024-02-21T04:34:47;17.83;;;10.85;;
23718;SDS011;43322;52.230;5.702;2024-02-21T04:37:14;19.50;;;10.55;;
23718;SDS011;43322;52.230;5.702;2024-02-21T04:39:41;13.90;;;9.98;;
23718;SDS011;43322;52.230;5.702;2024-02-21T04:42:09;15.93;;;10.00;;
23718;SDS011;43322;52.230;5.702;2024-02-21T04:44:36;20.27;;;10.90;;
23718;SDS011;43322;52.230;5.702;2024-02-21T04:47:04;19.08;;;10.80;;
23718;SDS011;43322;52.230;5.702;2024-02-21T04:49:31;25.08;;;10.57;;
23718;SDS011;43322;52.230;5.702;2024-02-21T04:51:58;18.10;;;10.30;;
23718;SDS011;43322;52.230;5.702;2024-02-21T04:54:25;20.55;;;10.18;;
23718;SDS011;43322;52.230;5.702;2024-02-21T04:56:51;17.77;;;10.02;;
23718;SDS011;43322;52.230;5.702;2024-02-21T04:59:20;17.65;;;8.93;;
23718;SDS011;43322;52.230;5.702;2024-02-21T05:01:46;18.42;;;10.18;;
23718;SDS011;43322;52.230;5.702;2024-02-21T05:04:13;14.82;;;9.82;;
23718;SDS011;43322;52.230;5.702;2024-02-21T05:06:40;17.52;;;9.52;;
23718;SDS011;43322;52.230;5.702;2024-02-21T05:09:08;19.45;;;10.45;;
23718;SDS011;43322;52.230;5.702;2024-02-21T05:11:35;19.13;;;9.45;;
23718;SDS011;43322;52.230;5.702;2024-02-21T05:14:02;20.48;;;9.82;;
23718;SDS011;43322;52.230;5.702;2024-02-21T05:16:31;20.23;;;10.05;;
23718;SDS011;43322;52.230;5.702;2024-02-21T05:18:58;19.00;;;10.48;;
23718;SDS011;43322;52.230;5.702;2024-02-21T05:21:25;16.80;;;9.65;;
23718;SDS011;43322;52.230;5.702;2024-02-21T05:23:53;16.88;;;10.10;;
23718;SDS011;43322;52.230;5.702;2024-02-21T05:26:20;18.23;;;10.00;;
23718;SDS011;43322;52.230;5.702;2024-02-21T05:28:47;18.30;;;10.00;;
23718;SDS011;43322;52.230;5.702;2024-02-21T05:31:15;16.58;;;9.52;;
23718;SDS011;43322;52.230;5.702;2024-02-21T05:33:43;16.08;;;10.32;;
23718;SDS011;43322;52.230;5.702;2024-02-21T05:36:10;16.83;;;10.00;;
23718;SDS011;43322;52.230;5.702;2024-02-21T05:38:37;18.88;;;10.38;;
23718;SDS011;43322;52.230;5.702;2024-02-21T05:41:04;17.13;;;10.57;;
23718;SDS011;43322;52.230;5.702;2024-02-21T05:43:31;14.50;;;9.50;;
23718;SDS011;43322;52.230;5.702;2024-02-21T05:45:58;17.25;;;9.90;;
23718;SDS011;43322;52.230;5.702;2024-02-21T05:48:25;19.00;;;10.60;;
23718;SDS011;43322;52.230;5.702;2024-02-21T05:50:53;16.38;;;10.18;;
23718;SDS011;43322;52.230;5.702;2024-02-21T05:53:20;18.42;;;10.57;;
23718;SDS011;43322;52.230;5.702;2024-02-21T05:55:47;20.65;;;10.95;;
23718;SDS011;43322;52.230;5.702;2024-02-21T05:58:14;17.27;;;10.63;;
23718;SDS011;43322;52.230;5.702;2024-02-21T06:00:40;17.52;;;11.63;;
23718;SDS011;43322;52.230;5.702;2024-02-21T06:03:07;18.83;;;10.82;;
23718;SDS011;43322;52.230;5.702;2024-02-21T06:05:36;19.90;;;11.93;;
23718;SDS011;43322;52.230;5.702;2024-02-21T06:08:06;19.42;;;11.13;;
23718;SDS011;43322;52.230;5.702;2024-02-21T06:10:33;17.63;;;11.60;;
23718;SDS011;43322;52.230;5.702;2024-02-21T06:13:00;21.48;;;12.13;;
23718;SDS011;43322;52.230;5.702;2024-02-21T06:15:26;16.23;;;11.57;;
23718;SDS011;43322;52.230;5.702;2024-02-21T06:17:53;15.13;;;11.38;;
23718;SDS011;43322;52.230;5.702;2024-02-21T06:20:20;21.83;;;12.70;;
23718;SDS011;43322;52.230;5.702;2024-02-21T06:22:47;19.83;;;12.32;;
23718;SDS011;43322;52.230;5.702;2024-02-21T06:25:15;21.35;;;11.90;;
23718;SDS011;43322;52.230;5.702;2024-02-21T06:27:43;16.35;;;11.60;;
23718;SDS011;43322;52.230;5.702;2024-02-21T06:30:10;17.73;;;12.10;;
23718;SDS011;43322;52.230;5.702;2024-02-21T06:32:37;20.23;;;12.02;;
23718;SDS011;43322;52.230;5.702;2024-02-21T06:35:04;20.23;;;13.07;;
23718;SDS011;43322;52.230;5.702;2024-02-21T06:37:32;20.20;;;12.88;;
23718;SDS011;43322;52.230;5.702;2024-02-21T06:39:58;22.67;;;13.65;;
23718;SDS011;43322;52.230;5.702;2024-02-21T06:42:27;26.13;;;14.25;;
23718;SDS011;43322;52.230;5.702;2024-02-21T06:44:54;22.42;;;14.70;;
23718;SDS011;43322;52.230;5.702;2024-02-21T06:47:22;29.33;;;14.73;;
23718;SDS011;43322;52.230;5.702;2024-02-21T06:49:49;23.60;;;15.25;;
23718;SDS011;43322;52.230;5.702;2024-02-21T06:52:17;27.13;;;15.85;;
23718;SDS011;43322;52.230;5.702;2024-02-21T06:54:45;34.88;;;16.05;;
23718;SDS011;43322;52.230;5.702;2024-02-21T06:57:12;36.65;;;17.65;;
23718;SDS011;43322;52.230;5.702;2024-02-21T06:59:40;28.88;;;16.42;;
23718;SDS011;43322;52.230;5.702;2024-02-21T07:02:07;33.05;;;17.88;;
23718;SDS011;43322;52.230;5.702;2024-02-21T07:04:34;31.55;;;18.02;;
23718;SDS011;43322;52.230;5.702;2024-02-21T07:07:01;33.50;;;18.75;;
23718;SDS011;43322;52.230;5.702;2024-02-21T07:09:28;31.77;;;18.00;;
23718;SDS011;43322;52.230;5.702;2024-02-21T07:11:57;31.27;;;18.42;;
23718;SDS011;43322;52.230;5.702;2024-02-21T07:14:24;31.65;;;19.25;;
23718;SDS011;43322;52.230;5.702;2024-02-21T07:16:52;32.95;;;18.70;;
23718;SDS011;43322;52.230;5.702;2024-02-21T07:19:19;31.05;;;19.20;;
23718;SDS011;43322;52.230;5.702;2024-02-21T07:21:46;32.25;;;19.90;;
23718;SDS011;43322;52.230;5.702;2024-02-21T07:24:13;33.03;;;20.08;;
23718;SDS011;43322;52.230;5.702;2024-02-21T07:26:41;37.03;;;19.45;;
23718;SDS011;43322;52.230;5.702;2024-02-21T07:29:08;35.13;;;19.02;;
23718;SDS011;43322;52.230;5.702;2024-02-21T07:31:38;29.60;;;19.15;;
23718;SDS011;43322;52.230;5.702;2024-02-21T07:34:08;32.88;;;18.70;;
23718;SDS011;43322;52.230;5.702;2024-02-21T07:36:35;33.60;;;18.13;;
23718;SDS011;43322;52.230;5.702;2024-02-21T07:39:03;29.42;;;17.52;;
23718;SDS011;43322;52.230;5.702;2024-02-21T07:41:30;32.10;;;18.63;;
23718;SDS011;43322;52.230;5.702;2024-02-21T07:43:59;29.42;;;17.52;;
23718;SDS011;43322;52.230;5.702;2024-02-21T07:46:26;31.05;;;15.73;;
23718;SDS011;43322;52.230;5.702;2024-02-21T07:48:53;30.80;;;16.88;;
23718;SDS011;43322;52.230;5.702;2024-02-21T07:51:21;30.52;;;15.57;;
23718;SDS011;43322;52.230;5.702;2024-02-21T07:53:48;25.23;;;15.02;;
23718;SDS011;43322;52.230;5.702;2024-02-21T07:56:15;30.67;;;16.48;;
23718;SDS011;43322;52.230;5.702;2024-02-21T07:58:42;28.38;;;15.75;;
23718;SDS011;43322;52.230;5.702;2024-02-21T08:01:08;26.33;;;14.68;;
23718;SDS011;43322;52.230;5.702;2024-02-21T08:03:36;26.52;;;16.15;;
23718;SDS011;43322;52.230;5.702;2024-02-21T08:06:03;26.08;;;14.68;;
23718;SDS011;43322;52.230;5.702;2024-02-21T08:08:31;28.95;;;14.82;;
23718;SDS011;43322;52.230;5.702;2024-02-21T08:10:58;28.77;;;14.05;;
23718;SDS011;43322;52.230;5.702;2024-02-21T08:13:25;26.70;;;14.85;;
23718;SDS011;43322;52.230;5.702;2024-02-21T08:15:53;24.38;;;13.68;;
23718;SDS011;43322;52.230;5.702;2024-02-21T08:18:20;26.73;;;14.43;;
23718;SDS011;43322;52.230;5.702;2024-02-21T08:20:47;23.20;;;13.18;;
23718;SDS011;43322;52.230;5.702;2024-02-21T08:23:15;20.35;;;13.43;;
23718;SDS011;43322;52.230;5.702;2024-02-21T08:25:43;24.30;;;13.48;;
23718;SDS011;43322;52.230;5.702;2024-02-21T08:28:10;22.45;;;12.68;;
23718;SDS011;43322;52.230;5.702;2024-02-21T08:30:38;21.08;;;12.90;;
23718;SDS011;43322;52.230;5.702;2024-02-21T08:33:05;21.77;;;12.32;;
23718;SDS011;43322;52.230;5.702;2024-02-21T08:35:32;19.38;;;12.43;;
23718;SDS011;43322;52.230;5.702;2024-02-21T08:37:58;28.77;;;12.98;;
23718;SDS011;43322;52.230;5.702;2024-02-21T08:40:25;21.48;;;11.57;;
23718;SDS011;43322;52.230;5.702;2024-02-21T08:42:53;22.20;;;12.10;;
23718;SDS011;43322;52.230;5.702;2024-02-21T08:45:20;17.92;;;12.30;;
23718;SDS011;43322;52.230;5.702;2024-02-21T08:47:47;22.30;;;12.10;;
23718;SDS011;43322;52.230;5.702;2024-02-21T08:50:14;25.40;;;12.95;;
23718;SDS011;43322;52.230;5.702;2024-02-21T08:52:41;20.73;;;13.27;;
23718;SDS011;43322;52.230;5.702;2024-02-21T08:55:08;25.83;;;12.68;;
23718;SDS011;43322;52.230;5.702;2024-02-21T08:57:35;23.25;;;12.77;;
23718;SDS011;43322;52.230;5.702;2024-02-21T09:00:04;20.63;;;12.20;;
23718;SDS011;43322;52.230;5.702;2024-02-21T09:02:35;27.02;;;12.30;;
23718;SDS011;43322;52.230;5.702;2024-02-21T09:05:03;21.90;;;11.90;;
23718;SDS011;43322;52.230;5.702;2024-02-21T09:07:31;24.83;;;13.25;;
23718;SDS011;43322;52.230;5.702;2024-02-21T09:09:58;21.52;;;12.27;;
23718;SDS011;43322;52.230;5.702;2024-02-21T09:12:24;21.13;;;12.00;;
23718;SDS011;43322;52.230;5.702;2024-02-21T09:14:51;28.45;;;12.20;;
23718;SDS011;43322;52.230;5.702;2024-02-21T09:17:20;19.85;;;11.65;;
23718;SDS011;43322;52.230;5.702;2024-02-21T09:19:46;23.80;;;12.82;;
23718;SDS011;43322;52.230;5.702;2024-02-21T09:22:13;25.15;;;12.25;;
23718;SDS011;43322;52.230;5.702;2024-02-21T09:24:40;20.80;;;11.82;;
23718;SDS011;43322;52.230;5.702;2024-02-21T09:27:07;22.65;;;12.43;;
23718;SDS011;43322;52.230;5.702;2024-02-21T09:29:34;24.98;;;12.88;;
23718;SDS011;43322;52.230;5.702;2024-02-21T09:32:01;20.55;;;11.77;;
23718;SDS011;43322;52.230;5.702;2024-02-21T09:34:30;19.98;;;11.25;;
23718;SDS011;43322;52.230;5.702;2024-02-21T09:36:56;20.65;;;11.80;;
23718;SDS011;43322;52.230;5.702;2024-02-21T09:39:23;19.73;;;12.05;;
23718;SDS011;43322;52.230;5.702;2024-02-21T09:41:50;19.88;;;11.95;;
23718;SDS011;43322;52.230;5.702;2024-02-21T09:44:22;16.55;;;11.60;;
23718;SDS011;43322;52.230;5.702;2024-02-21T09:46:57;20.67;;;12.23;;
23718;SDS011;43322;52.230;5.702;2024-02-21T09:49:31;16.08;;;10.52;;
23718;SDS011;43322;52.230;5.702;2024-02-21T09:51:59;19.08;;;10.45;;
23718;SDS011;43322;52.230;5.702;2024-02-21T09:54:28;20.05;;;10.80;;
23718;SDS011;43322;52.230;5.702;2024-02-21T09:56:56;14.05;;;10.32;;
23718;SDS011;43322;52.230;5.702;2024-02-21T09:59:23;15.25;;;9.75;;
23718;SDS011;43322;52.230;5.702;2024-02-21T10:01:51;15.00;;;10.52;;
23718;SDS011;43322;52.230;5.702;2024-02-21T10:04:18;16.25;;;9.60;;
23718;SDS011;43322;52.230;5.702;2024-02-21T10:06:47;16.65;;;9.77;;
23718;SDS011;43322;52.230;5.702;2024-02-21T10:09:20;16.60;;;9.18;;
23718;SDS011;43322;52.230;5.702;2024-02-21T10:11:48;13.88;;;9.90;;
23718;SDS011;43322;52.230;5.702;2024-02-21T10:14:15;12.88;;;8.95;;
23718;SDS011;43322;52.230;5.702;2024-02-21T10:16:43;14.18;;;9.88;;
23718;SDS011;43322;52.230;5.702;2024-02-21T10:19:17;15.85;;;9.65;;
23718;SDS011;43322;52.230;5.702;2024-02-21T10:21:45;11.13;;;8.43;;
23718;SDS011;43322;52.230;5.702;2024-02-21T10:24:28;10.13;;;8.23;;
23718;SDS011;43322;52.230;5.702;2024-02-21T10:26:58;13.68;;;9.02;;
23718;SDS011;43322;52.230;5.702;2024-02-21T10:29:27;17.33;;;9.10;;
23718;SDS011;43322;52.230;5.702;2024-02-21T10:32:03;14.30;;;8.70;;
23718;SDS011;43322;52.230;5.702;2024-02-21T10:34:33;11.90;;;8.00;;
23718;SDS011;43322;52.230;5.702;2024-02-21T10:37:02;13.32;;;8.38;;
23718;SDS011;43322;52.230;5.702;2024-02-21T10:39:29;12.70;;;8.10;;
23718;SDS011;43322;52.230;5.702;2024-02-21T10:41:58;11.43;;;8.52;;
23718;SDS011;43322;52.230;5.702;2024-02-21T10:44:26;12.50;;;8.32;;
23718;SDS011;43322;52.230;5.702;2024-02-21T10:46:55;8.90;;;7.70;;
23718;SDS011;43322;52.230;5.702;2024-02-21T10:49:22;13.50;;;8.43;;
23718;SDS011;43322;52.230;5.702;2024-02-21T10:51:52;10.93;;;7.85;;
23718;SDS011;43322;52.230;5.702;2024-02-21T10:57:12;10.55;;;7.38;;
23718;SDS011;43322;52.230;5.702;2024-02-21T10:59:40;10.48;;;7.22;;
23718;SDS011;43322;52.230;5.702;2024-02-21T11:02:08;7.55;;;6.85;;
23718;SDS011;43322;52.230;5.702;2024-02-21T11:04:35;7.00;;;6.32;;
23718;SDS011;43322;52.230;5.702;2024-02-21T11:07:03;6.85;;;6.35;;
23718;SDS011;43322;52.230;5.702;2024-02-21T11:09:31;8.15;;;6.32;;
23718;SDS011;43322;52.230;5.702;2024-02-21T11:12:02;11.88;;;6.05;;
23718;SDS011;43322;52.230;5.702;2024-02-21T11:14:30;6.47;;;5.93;;
23718;SDS011;43322;52.230;5.702;2024-02-21T11:16:58;8.00;;;6.25;;
23718;SDS011;43322;52.230;5.702;2024-02-21T11:19:25;8.75;;;6.07;;
23718;SDS011;43322;52.230;5.702;2024-02-21T11:21:53;7.18;;;6.47;;
23718;SDS011;43322;52.230;5.702;2024-02-21T11:24:28;6.53;;;5.97;;
23718;SDS011;43322;52.230;5.702;2024-02-21T11:26:56;6.53;;;6.03;;
23718;SDS011;43322;52.230;5.702;2024-02-21T11:29:39;7.45;;;6.57;;
23718;SDS011;43322;52.230;5.702;2024-02-21T11:32:09;7.35;;;6.65;;
23718;SDS011;43322;52.230;5.702;2024-02-21T11:34:36;9.35;;;7.45;;
23718;SDS011;43322;52.230;5.702;2024-02-21T11:37:04;8.90;;;7.20;;
23718;SDS011;43322;52.230;5.702;2024-02-21T11:39:40;8.82;;;7.80;;
23718;SDS011;43322;52.230;5.702;2024-02-21T11:42:09;11.73;;;7.85;;
23718;SDS011;43322;52.230;5.702;2024-02-21T11:44:37;8.23;;;7.43;;
23718;SDS011;43322;52.230;5.702;2024-02-21T11:47:05;9.48;;;8.57;;
23718;SDS011;43322;52.230;5.702;2024-02-21T11:49:35;13.95;;;8.93;;
23718;SDS011;43322;52.230;5.702;2024-02-21T11:52:03;14.05;;;9.30;;
23718;SDS011;43322;52.230;5.702;2024-02-21T11:54:30;12.02;;;8.75;;
23718;SDS011;43322;52.230;5.702;2024-02-21T11:56:57;11.02;;;9.23;;
23718;SDS011;43322;52.230;5.702;2024-02-21T11:59:25;13.60;;;9.32;;
23718;SDS011;43322;52.230;5.702;2024-02-21T12:01:52;15.45;;;9.60;;
23718;SDS011;43322;52.230;5.702;2024-02-21T12:04:20;11.23;;;10.10;;
23718;SDS011;43322;52.230;5.702;2024-02-21T12:06:48;15.07;;;10.52;;
23718;SDS011;43322;52.230;5.702;2024-02-21T12:09:16;15.43;;;10.25;;
23718;SDS011;43322;52.230;5.702;2024-02-21T12:11:42;11.75;;;9.98;;
23718;SDS011;43322;52.230;5.702;2024-02-21T12:14:10;15.40;;;10.70;;
23718;SDS011;43322;52.230;5.702;2024-02-21T12:16:38;12.82;;;9.93;;
23718;SDS011;43322;52.230;5.702;2024-02-21T12:19:05;11.40;;;9.82;;
23718;SDS011;43322;52.230;5.702;2024-02-21T12:21:32;13.27;;;10.02;;
23718;SDS011;43322;52.230;5.702;2024-02-21T12:24:11;12.02;;;9.57;;
23718;SDS011;43322;52.230;5.702;2024-02-21T12:26:38;12.77;;;10.27;;
23718;SDS011;43322;52.230;5.702;2024-02-21T12:29:05;12.48;;;9.48;;
23718;SDS011;43322;52.230;5.702;2024-02-21T12:31:34;13.98;;;9.88;;
23718;SDS011;43322;52.230;5.702;2024-02-21T12:34:02;10.63;;;8.82;;
23718;SDS011;43322;52.230;5.702;2024-02-21T12:36:29;14.55;;;8.57;;
23718;SDS011;43322;52.230;5.702;2024-02-21T12:38:56;10.63;;;7.85;;
23718;SDS011;43322;52.230;5.702;2024-02-21T12:41:23;14.48;;;8.48;;
23718;SDS011;43322;52.230;5.702;2024-02-21T12:43:51;9.50;;;8.00;;
23718;SDS011;43322;52.230;5.702;2024-02-21T12:46:18;10.90;;;8.07;;
23718;SDS011;43322;52.230;5.702;2024-02-21T12:48:45;9.05;;;7.43;;
23718;SDS011;43322;52.230;5.702;2024-02-21T12:51:13;8.43;;;7.55;;
23718;SDS011;43322;52.230;5.702;2024-02-21T12:53:41;8.90;;;7.43;;
23718;SDS011;43322;52.230;5.702;2024-02-21T12:56:07;11.13;;;7.35;;
23718;SDS011;43322;52.230;5.702;2024-02-21T12:58:34;10.85;;;6.97;;
23718;SDS011;43322;52.230;5.702;2024-02-21T13:01:01;9.07;;;7.30;;
23718;SDS011;43322;52.230;5.702;2024-02-21T13:03:28;9.55;;;7.05;;
23718;SDS011;43322;52.230;5.702;2024-02-21T13:05:55;9.90;;;7.43;;
23718;SDS011;43322;52.230;5.702;2024-02-21T13:08:25;11.98;;;6.93;;
23718;SDS011;43322;52.230;5.702;2024-02-21T13:10:52;10.95;;;6.88;;
23718;SDS011;43322;52.230;5.702;2024-02-21T13:13:19;9.70;;;6.30;;
23718;SDS011;43322;52.230;5.702;2024-02-21T13:15:46;9.88;;;6.53;;
23718;SDS011;43322;52.230;5.702;2024-02-21T13:18:12;8.43;;;6.90;;
23718;SDS011;43322;52.230;5.702;2024-02-21T13:20:39;8.77;;;6.55;;
23718;SDS011;43322;52.230;5.702;2024-02-21T13:23:06;15.45;;;6.38;;
23718;SDS011;43322;52.230;5.702;2024-02-21T13:25:34;12.30;;;6.05;;
23718;SDS011;43322;52.230;5.702;2024-02-21T13:28:01;8.82;;;6.07;;
23718;SDS011;43322;52.230;5.702;2024-02-21T13:30:28;10.63;;;6.53;;
23718;SDS011;43322;52.230;5.702;2024-02-21T13:32:55;8.05;;;6.10;;
23718;SDS011;43322;52.230;5.702;2024-02-21T13:35:22;11.43;;;6.18;;
23718;SDS011;43322;52.230;5.702;2024-02-21T13:37:49;9.10;;;6.47;;
23718;SDS011;43322;52.230;5.702;2024-02-21T13:40:16;11.13;;;6.35;;
23718;SDS011;43322;52.230;5.702;2024-02-21T13:42:44;8.18;;;5.82;;
23718;SDS011;43322;52.230;5.702;2024-02-21T13:45:11;8.05;;;6.00;;
23718;SDS011;43322;52.230;5.702;2024-02-21T13:47:38;10.48;;;6.32;;
23718;SDS011;43322;52.230;5.702;2024-02-21T13:50:05;10.75;;;6.20;;
23718;SDS011;43322;52.230;5.702;2024-02-21T13:52:34;10.38;;;6.32;;
23718;SDS011;43322;52.230;5.702;2024-02-21T13:55:01;10.65;;;6.40;;
23718;SDS011;43322;52.230;5.702;2024-02-21T13:57:28;8.05;;;6.20;;
23718;SDS011;43322;52.230;5.702;2024-02-21T13:59:56;13.70;;;6.45;;
23718;SDS011;43322;52.230;5.702;2024-02-21T14:02:24;8.07;;;6.25;;
23718;SDS011;43322;52.230;5.702;2024-02-21T14:04:51;11.13;;;6.10;;
23718;SDS011;43322;52.230;5.702;2024-02-21T14:07:18;8.50;;;6.18;;
23718;SDS011;43322;52.230;5.702;2024-02-21T14:09:44;9.48;;;6.20;;
23718;SDS011;43322;52.230;5.702;2024-02-21T14:12:11;9.57;;;6.80;;
23718;SDS011;43322;52.230;5.702;2024-02-21T14:14:38;8.52;;;6.07;;
23718;SDS011;43322;52.230;5.702;2024-02-21T14:17:07;12.93;;;6.55;;
23718;SDS011;43322;52.230;5.702;2024-02-21T14:19:34;9.68;;;5.72;;
23718;SDS011;43322;52.230;5.702;2024-02-21T14:22:01;8.93;;;5.85;;
23718;SDS011;43322;52.230;5.702;2024-02-21T14:24:28;6.50;;;5.55;;
23718;SDS011;43322;52.230;5.702;2024-02-21T14:26:55;11.88;;;6.45;;
23718;SDS011;43322;52.230;5.702;2024-02-21T14:29:22;10.50;;;6.53;;
23718;SDS011;43322;52.230;5.702;2024-02-21T14:31:48;10.32;;;6.15;;
23718;SDS011;43322;52.230;5.702;2024-02-21T14:34:17;9.25;;;5.88;;
23718;SDS011;43322;52.230;5.702;2024-02-21T14:36:43;6.65;;;5.70;;